Saint Peters Bay, Canada
Current Conditions -  °F | °C
As of 2:00 PM on Thursday 23 Oct 2014 (Local Time) from CYYG Reporting Station
Broken Clouds Broken Clouds  
Wind Chill: 57°   Ceiling: 6800
Heat Index: 57°   Visibility: 15mi
Dew Point: 45°   Wind: 14mph
Humidity: 63%   Direction: 70°ENE
Pressure: 30.09"   Gusts: NA
Location:  46.42°N, 62.57°W
Report Text: CYYG 231700Z 07012KT 15SM FEW020 BKN068 BKN250 14/07 A3009 RMK SC1AC6CI1 SC TR PRESFR SLP192
Loading
Personal Weather Stations






























Interactive Weather Map
Tropical Storm Tracking
New forecast layout! Learn more

10-Day Weather Forecast

Advertisements
Track Severe Weather on mobile